sensor_id;sensor_type;location;lat;lon;timestamp;pressure;altitude;pressure_sealevel;temperature;humidity
57644;BME280;43474;46.510;6.686;2023-02-25T00:01:47;95544.09;;;6.93;100.00
57644;BME280;43474;46.510;6.686;2023-02-25T00:04:13;95558.97;;;6.99;100.00
57644;BME280;43474;46.510;6.686;2023-02-25T00:06:38;95542.72;;;6.91;100.00
57644;BME280;43474;46.510;6.686;2023-02-25T00:09:05;95563.75;;;7.03;100.00
57644;BME280;43474;46.510;6.686;2023-02-25T00:11:31;95553.94;;;6.98;100.00
57644;BME280;43474;46.510;6.686;2023-02-25T00:13:57;95559.44;;;6.96;100.00
57644;BME280;43474;46.510;6.686;2023-02-25T00:16:23;95566.84;;;6.99;100.00
57644;BME280;43474;46.510;6.686;2023-02-25T00:18:56;95572.22;;;7.05;100.00
57644;BME280;43474;46.510;6.686;2023-02-25T00:21:23;95555.44;;;6.94;100.00
57644;BME280;43474;46.510;6.686;2023-02-25T00:23:50;95552.56;;;6.95;100.00
57644;BME280;43474;46.510;6.686;2023-02-25T00:26:16;95574.41;;;6.96;100.00
57644;BME280;43474;46.510;6.686;2023-02-25T00:28:42;95563.56;;;6.92;100.00
57644;BME280;43474;46.510;6.686;2023-02-25T00:31:10;95548.31;;;6.94;100.00
57644;BME280;43474;46.510;6.686;2023-02-25T00:33:37;95563.66;;;6.97;100.00
57644;BME280;43474;46.510;6.686;2023-02-25T00:36:17;95553.25;;;6.91;100.00
57644;BME280;43474;46.510;6.686;2023-02-25T00:38:45;95558.63;;;6.96;100.00
57644;BME280;43474;46.510;6.686;2023-02-25T00:41:15;95551.44;;;6.91;100.00
57644;BME280;43474;46.510;6.686;2023-02-25T00:43:43;95564.47;;;6.98;100.00
57644;BME280;43474;46.510;6.686;2023-02-25T00:46:12;95548.56;;;6.93;100.00
57644;BME280;43474;46.510;6.686;2023-02-25T00:48:38;95548.91;;;6.96;100.00
57644;BME280;43474;46.510;6.686;2023-02-25T00:51:05;95529.78;;;6.89;100.00
57644;BME280;43474;46.510;6.686;2023-02-25T00:53:31;95542.50;;;6.92;100.00
57644;BME280;43474;46.510;6.686;2023-02-25T00:55:58;95552.88;;;6.99;100.00
57644;BME280;43474;46.510;6.686;2023-02-25T00:58:24;95535.41;;;6.93;100.00
57644;BME280;43474;46.510;6.686;2023-02-25T01:00:50;95547.69;;;6.87;100.00
57644;BME280;43474;46.510;6.686;2023-02-25T01:03:16;95546.72;;;6.93;100.00
57644;BME280;43474;46.510;6.686;2023-02-25T01:05:41;95538.81;;;6.93;100.00
57644;BME280;43474;46.510;6.686;2023-02-25T01:08:07;95529.00;;;6.89;100.00
57644;BME280;43474;46.510;6.686;2023-02-25T01:10:33;95521.66;;;6.91;100.00
57644;BME280;43474;46.510;6.686;2023-02-25T01:12:58;95532.91;;;6.86;100.00
57644;BME280;43474;46.510;6.686;2023-02-25T01:15:24;95520.31;;;6.88;100.00
57644;BME280;43474;46.510;6.686;2023-02-25T01:17:49;95510.81;;;6.87;100.00
57644;BME280;43474;46.510;6.686;2023-02-25T01:20:15;95491.69;;;6.80;100.00
57644;BME280;43474;46.510;6.686;2023-02-25T01:22:44;95508.03;;;6.94;100.00
57644;BME280;43474;46.510;6.686;2023-02-25T01:25:12;95497.84;;;6.86;100.00
57644;BME280;43474;46.510;6.686;2023-02-25T01:27:40;95506.88;;;6.90;100.00
57644;BME280;43474;46.510;6.686;2023-02-25T01:30:06;95493.28;;;6.81;100.00
57644;BME280;43474;46.510;6.686;2023-02-25T01:32:32;95496.06;;;6.74;100.00
57644;BME280;43474;46.510;6.686;2023-02-25T01:34:58;95490.09;;;6.79;100.00
57644;BME280;43474;46.510;6.686;2023-02-25T01:37:24;95495.13;;;6.81;100.00
57644;BME280;43474;46.510;6.686;2023-02-25T01:39:49;95487.94;;;6.76;100.00
57644;BME280;43474;46.510;6.686;2023-02-25T01:42:15;95489.84;;;6.81;100.00
57644;BME280;43474;46.510;6.686;2023-02-25T01:47:45;95481.56;;;6.72;100.00
57644;BME280;43474;46.510;6.686;2023-02-25T01:50:13;95477.66;;;6.74;100.00
57644;BME280;43474;46.510;6.686;2023-02-25T01:52:40;95460.25;;;6.73;100.00
57644;BME280;43474;46.510;6.686;2023-02-25T01:55:08;95463.34;;;6.70;100.00
57644;BME280;43474;46.510;6.686;2023-02-25T01:57:35;95458.88;;;6.71;100.00
57644;BME280;43474;46.510;6.686;2023-02-25T02:00:00;95464.22;;;6.76;100.00
57644;BME280;43474;46.510;6.686;2023-02-25T02:02:28;95449.09;;;6.55;100.00
57644;BME280;43474;46.510;6.686;2023-02-25T02:04:53;95458.13;;;6.59;100.00
57644;BME280;43474;46.510;6.686;2023-02-25T02:07:21;95442.94;;;6.49;100.00
57644;BME280;43474;46.510;6.686;2023-02-25T02:09:48;95453.56;;;6.54;100.00
57644;BME280;43474;46.510;6.686;2023-02-25T02:12:41;95448.91;;;6.44;100.00
57644;BME280;43474;46.510;6.686;2023-02-25T02:15:11;95437.75;;;6.37;100.00
57644;BME280;43474;46.510;6.686;2023-02-25T02:22:53;95446.13;;;6.22;100.00
57644;BME280;43474;46.510;6.686;2023-02-25T02:31:07;95444.34;;;6.00;100.00
57644;BME280;43474;46.510;6.686;2023-02-25T02:34:03;95436.44;;;5.88;100.00
57644;BME280;43474;46.510;6.686;2023-02-25T02:42:37;95452.81;;;5.78;100.00
57644;BME280;43474;46.510;6.686;2023-02-25T02:45:21;95448.91;;;5.81;100.00
57644;BME280;43474;46.510;6.686;2023-02-25T02:48:00;95443.75;;;5.86;100.00
57644;BME280;43474;46.510;6.686;2023-02-25T02:50:40;95439.31;;;5.98;100.00
57644;BME280;43474;46.510;6.686;2023-02-25T02:53:19;95426.81;;;5.82;100.00
57644;BME280;43474;46.510;6.686;2023-02-25T02:55:50;95441.59;;;5.83;100.00
57644;BME280;43474;46.510;6.686;2023-02-25T02:58:27;95437.00;;;5.66;100.00
57644;BME280;43474;46.510;6.686;2023-02-25T03:01:00;95444.31;;;5.76;100.00
57644;BME280;43474;46.510;6.686;2023-02-25T03:03:31;95425.94;;;5.64;100.00
57644;BME280;43474;46.510;6.686;2023-02-25T03:06:07;95449.25;;;5.84;100.00
57644;BME280;43474;46.510;6.686;2023-02-25T03:08:39;95446.84;;;5.83;100.00
57644;BME280;43474;46.510;6.686;2023-02-25T03:11:09;95457.63;;;5.93;100.00
57644;BME280;43474;46.510;6.686;2023-02-25T03:13:35;95451.56;;;5.92;100.00
57644;BME280;43474;46.510;6.686;2023-02-25T03:16:04;95443.69;;;5.92;100.00
57644;BME280;43474;46.510;6.686;2023-02-25T03:18:38;95451.88;;;5.96;100.00
57644;BME280;43474;46.510;6.686;2023-02-25T03:21:13;95442.97;;;5.97;100.00
57644;BME280;43474;46.510;6.686;2023-02-25T03:23:41;95451.63;;;6.09;100.00
57644;BME280;43474;46.510;6.686;2023-02-25T03:28:44;95451.84;;;6.19;100.00
57644;BME280;43474;46.510;6.686;2023-02-25T03:33:54;95452.97;;;6.24;100.00
57644;BME280;43474;46.510;6.686;2023-02-25T03:36:27;95456.16;;;6.26;100.00
57644;BME280;43474;46.510;6.686;2023-02-25T03:38:58;95450.78;;;6.32;100.00
57644;BME280;43474;46.510;6.686;2023-02-25T03:41:30;95451.59;;;6.33;100.00
57644;BME280;43474;46.510;6.686;2023-02-25T03:44:00;95443.69;;;6.33;100.00
57644;BME280;43474;46.510;6.686;2023-02-25T03:46:30;95433.88;;;6.28;100.00
57644;BME280;43474;46.510;6.686;2023-02-25T03:48:57;95434.22;;;6.32;100.00
57644;BME280;43474;46.510;6.686;2023-02-25T03:51:28;95433.47;;;6.36;100.00
57644;BME280;43474;46.510;6.686;2023-02-25T03:53:55;95445.94;;;6.41;100.00
57644;BME280;43474;46.510;6.686;2023-02-25T03:56:21;95447.78;;;6.40;100.00
57644;BME280;43474;46.510;6.686;2023-02-25T03:58:46;95448.25;;;6.37;100.00
57644;BME280;43474;46.510;6.686;2023-02-25T04:01:25;95446.97;;;6.40;100.00
57644;BME280;43474;46.510;6.686;2023-02-25T04:03:52;95445.38;;;6.39;100.00
57644;BME280;43474;46.510;6.686;2023-02-25T04:06:21;95442.50;;;6.40;100.00
57644;BME280;43474;46.510;6.686;2023-02-25T04:08:47;95450.66;;;6.39;100.00
57644;BME280;43474;46.510;6.686;2023-02-25T04:11:13;95444.34;;;6.40;100.00
57644;BME280;43474;46.510;6.686;2023-02-25T04:13:38;95456.94;;;6.38;100.00
57644;BME280;43474;46.510;6.686;2023-02-25T04:16:04;95462.53;;;6.41;100.00
57644;BME280;43474;46.510;6.686;2023-02-25T04:18:30;95454.53;;;6.36;100.00
57644;BME280;43474;46.510;6.686;2023-02-25T04:20:56;95444.84;;;6.37;100.00
57644;BME280;43474;46.510;6.686;2023-02-25T04:23:21;95456.47;;;6.41;100.00
57644;BME280;43474;46.510;6.686;2023-02-25T04:25:47;95453.72;;;6.47;100.00
57644;BME280;43474;46.510;6.686;2023-02-25T04:28:12;95446.53;;;6.43;100.00
57644;BME280;43474;46.510;6.686;2023-02-25T04:30:38;95434.78;;;6.34;100.00
57644;BME280;43474;46.510;6.686;2023-02-25T04:33:03;95434.78;;;6.34;100.00
57644;BME280;43474;46.510;6.686;2023-02-25T04:35:29;95454.34;;;6.26;100.00
57644;BME280;43474;46.510;6.686;2023-02-25T04:37:55;95460.72;;;6.30;100.00
57644;BME280;43474;46.510;6.686;2023-02-25T04:40:22;95458.44;;;6.34;100.00
57644;BME280;43474;46.510;6.686;2023-02-25T04:42:48;95435.81;;;6.21;100.00
57644;BME280;43474;46.510;6.686;2023-02-25T04:45:15;95462.91;;;6.33;100.00
57644;BME280;43474;46.510;6.686;2023-02-25T04:47:41;95454.13;;;6.28;100.00
57644;BME280;43474;46.510;6.686;2023-02-25T04:50:08;95465.31;;;6.35;100.00
57644;BME280;43474;46.510;6.686;2023-02-25T04:52:34;95456.75;;;6.28;100.00
57644;BME280;43474;46.510;6.686;2023-02-25T04:54:59;95459.38;;;6.28;100.00
57644;BME280;43474;46.510;6.686;2023-02-25T04:57:25;95451.16;;;6.24;100.00
57644;BME280;43474;46.510;6.686;2023-02-25T04:59:51;95460.19;;;6.28;100.00
57644;BME280;43474;46.510;6.686;2023-02-25T05:02:16;95456.88;;;6.21;100.00
57644;BME280;43474;46.510;6.686;2023-02-25T05:04:42;95455.28;;;6.20;100.00
57644;BME280;43474;46.510;6.686;2023-02-25T05:07:08;95457.09;;;6.19;100.00
57644;BME280;43474;46.510;6.686;2023-02-25T05:09:34;95454.13;;;6.16;100.00
57644;BME280;43474;46.510;6.686;2023-02-25T05:12:00;95460.97;;;6.29;100.00
57644;BME280;43474;46.510;6.686;2023-02-25T05:14:25;95452.75;;;6.25;100.00
57644;BME280;43474;46.510;6.686;2023-02-25T05:16:51;95456.75;;;6.28;100.00
57644;BME280;43474;46.510;6.686;2023-02-25T05:19:19;95452.53;;;6.27;100.00
57644;BME280;43474;46.510;6.686;2023-02-25T05:21:48;95465.53;;;6.33;100.00
57644;BME280;43474;46.510;6.686;2023-02-25T05:24:15;95455.72;;;6.29;100.00
57644;BME280;43474;46.510;6.686;2023-02-25T05:26:40;95455.28;;;6.20;100.00
57644;BME280;43474;46.510;6.686;2023-02-25T05:29:06;95438.44;;;6.21;100.00
57644;BME280;43474;46.510;6.686;2023-02-25T05:31:31;95436.31;;;6.18;100.00
57644;BME280;43474;46.510;6.686;2023-02-25T05:33:57;95436.84;;;6.20;100.00
57644;BME280;43474;46.510;6.686;2023-02-25T05:36:23;95443.59;;;6.28;100.00
57644;BME280;43474;46.510;6.686;2023-02-25T05:38:52;95432.41;;;6.20;100.00
57644;BME280;43474;46.510;6.686;2023-02-25T05:41:18;95426.81;;;6.17;100.00
57644;BME280;43474;46.510;6.686;2023-02-25T05:43:44;95430.16;;;6.12;100.00
57644;BME280;43474;46.510;6.686;2023-02-25T05:46:11;95415.72;;;6.15;100.00
57644;BME280;43474;46.510;6.686;2023-02-25T05:48:40;95419.28;;;6.09;100.00
57644;BME280;43474;46.510;6.686;2023-02-25T05:51:09;95424.78;;;5.95;100.00
57644;BME280;43474;46.510;6.686;2023-02-25T05:53:36;95429.25;;;5.95;100.00
57644;BME280;43474;46.510;6.686;2023-02-25T05:56:06;95418.84;;;5.88;100.00
57644;BME280;43474;46.510;6.686;2023-02-25T05:58:33;95411.19;;;5.87;100.00
57644;BME280;43474;46.510;6.686;2023-02-25T06:00:59;95421.22;;;5.90;100.00
57644;BME280;43474;46.510;6.686;2023-02-25T06:03:25;95411.88;;;5.82;100.00
57644;BME280;43474;46.510;6.686;2023-02-25T06:05:50;95413.56;;;5.77;100.00
57644;BME280;43474;46.510;6.686;2023-02-25T06:08:17;95419.19;;;5.80;100.00
57644;BME280;43474;46.510;6.686;2023-02-25T06:10:43;95421.13;;;5.85;100.00
57644;BME280;43474;46.510;6.686;2023-02-25T06:13:10;95410.38;;;5.75;100.00
57644;BME280;43474;46.510;6.686;2023-02-25T06:15:37;95401.03;;;5.67;100.00
57644;BME280;43474;46.510;6.686;2023-02-25T06:18:03;95408.31;;;5.77;100.00
57644;BME280;43474;46.510;6.686;2023-02-25T06:20:29;95411.88;;;5.82;100.00
57644;BME280;43474;46.510;6.686;2023-02-25T06:22:54;95411.06;;;5.82;100.00
57644;BME280;43474;46.510;6.686;2023-02-25T06:25:20;95412.53;;;5.89;100.00
57644;BME280;43474;46.510;6.686;2023-02-25T06:27:46;95403.53;;;5.74;100.00
57644;BME280;43474;46.510;6.686;2023-02-25T06:30:12;95417.13;;;5.82;100.00
57644;BME280;43474;46.510;6.686;2023-02-25T06:32:38;95419.28;;;5.85;100.00
57644;BME280;43474;46.510;6.686;2023-02-25T06:35:04;95409.56;;;5.86;100.00
57644;BME280;43474;46.510;6.686;2023-02-25T06:37:31;95422.03;;;5.90;100.00
57644;BME280;43474;46.510;6.686;2023-02-25T06:39:56;95417.94;;;5.94;100.00
57644;BME280;43474;46.510;6.686;2023-02-25T06:42:22;95422.63;;;5.92;100.00
57644;BME280;43474;46.510;6.686;2023-02-25T06:44:48;95404.09;;;5.99;100.00
57644;BME280;43474;46.510;6.686;2023-02-25T06:47:13;95406.94;;;5.86;100.00
57644;BME280;43474;46.510;6.686;2023-02-25T06:49:39;95419.88;;;5.99;100.00
57644;BME280;43474;46.510;6.686;2023-02-25T06:52:04;95430.72;;;6.03;100.00
57644;BME280;43474;46.510;6.686;2023-02-25T06:54:30;95416.09;;;5.95;100.00
57644;BME280;43474;46.510;6.686;2023-02-25T06:56:56;95425.03;;;5.94;100.00
57644;BME280;43474;46.510;6.686;2023-02-25T06:59:21;95431.28;;;6.05;100.00
57644;BME280;43474;46.510;6.686;2023-02-25T07:01:47;95435.06;;;6.09;100.00
57644;BME280;43474;46.510;6.686;2023-02-25T07:04:17;95431.06;;;6.06;100.00
57644;BME280;43474;46.510;6.686;2023-02-25T07:06:43;95441.78;;;6.16;100.00
57644;BME280;43474;46.510;6.686;2023-02-25T07:09:09;95435.16;;;6.14;100.00
57644;BME280;43474;46.510;6.686;2023-02-25T07:11:34;95434.72;;;6.17;100.00
57644;BME280;43474;46.510;6.686;2023-02-25T07:14:02;95427.38;;;6.19;100.00
57644;BME280;43474;46.510;6.686;2023-02-25T07:16:28;95444.16;;;6.30;100.00
57644;BME280;43474;46.510;6.686;2023-02-25T07:18:55;95437.75;;;6.37;100.00
57644;BME280;43474;46.510;6.686;2023-02-25T07:21:21;95438.63;;;6.43;100.00
57644;BME280;43474;46.510;6.686;2023-02-25T07:23:47;95435.59;;;6.51;100.00
57644;BME280;43474;46.510;6.686;2023-02-25T07:26:14;95432.88;;;6.46;100.00
57644;BME280;43474;46.510;6.686;2023-02-25T07:28:40;95427.00;;;6.56;100.00
57644;BME280;43474;46.510;6.686;2023-02-25T07:31:10;95426.28;;;6.72;100.00
57644;BME280;43474;46.510;6.686;2023-02-25T07:33:36;95412.78;;;6.68;100.00
57644;BME280;43474;46.510;6.686;2023-02-25T07:36:02;95422.06;;;6.88;100.00
57644;BME280;43474;46.510;6.686;2023-02-25T07:38:27;95411.00;;;7.03;100.00
57644;BME280;43474;46.510;6.686;2023-02-25T07:40:53;95416.66;;;7.11;100.00
57644;BME280;43474;46.510;6.686;2023-02-25T07:43:18;95410.66;;;7.16;100.00
57644;BME280;43474;46.510;6.686;2023-02-25T07:45:44;95412.50;;;7.32;100.00
57644;BME280;43474;46.510;6.686;2023-02-25T07:48:10;95417.84;;;7.54;100.00
57644;BME280;43474;46.510;6.686;2023-02-25T07:50:37;95411.97;;;7.69;100.00
57644;BME280;43474;46.510;6.686;2023-02-25T07:53:02;95418.03;;;7.86;100.00
57644;BME280;43474;46.510;6.686;2023-02-25T07:55:28;95418.69;;;7.98;100.00
57644;BME280;43474;46.510;6.686;2023-02-25T07:57:53;95407.06;;;8.16;100.00
57644;BME280;43474;46.510;6.686;2023-02-25T08:00:19;95409.63;;;8.33;100.00
57644;BME280;43474;46.510;6.686;2023-02-25T08:02:45;95414.03;;;8.71;100.00
57644;BME280;43474;46.510;6.686;2023-02-25T08:05:11;95409.41;;;9.53;100.00
57644;BME280;43474;46.510;6.686;2023-02-25T08:07:36;95408.19;;;9.28;100.00
57644;BME280;43474;46.510;6.686;2023-02-25T08:10:03;95413.63;;;9.17;100.00
57644;BME280;43474;46.510;6.686;2023-02-25T08:12:28;95397.34;;;8.98;100.00
57644;BME280;43474;46.510;6.686;2023-02-25T08:14:54;95415.72;;;9.15;100.00
57644;BME280;43474;46.510;6.686;2023-02-25T08:17:21;95394.19;;;8.96;100.00
57644;BME280;43474;46.510;6.686;2023-02-25T08:19:47;95406.19;;;9.14;100.00
57644;BME280;43474;46.510;6.686;2023-02-25T08:22:12;95380.03;;;9.12;100.00
57644;BME280;43474;46.510;6.686;2023-02-25T08:24:38;95390.75;;;9.32;100.00
57644;BME280;43474;46.510;6.686;2023-02-25T08:27:04;95381.38;;;9.52;100.00
57644;BME280;43474;46.510;6.686;2023-02-25T08:29:34;95390.31;;;9.88;100.00
57644;BME280;43474;46.510;6.686;2023-02-25T08:32:00;95370.41;;;9.75;100.00
57644;BME280;43474;46.510;6.686;2023-02-25T08:34:26;95386.25;;;9.70;100.00
57644;BME280;43474;46.510;6.686;2023-02-25T08:36:51;95382.69;;;9.54;100.00
57644;BME280;43474;46.510;6.686;2023-02-25T08:39:17;95385.31;;;9.49;100.00
57644;BME280;43474;46.510;6.686;2023-02-25T08:41:43;95367.75;;;9.70;100.00
57644;BME280;43474;46.510;6.686;2023-02-25T08:44:09;95393.00;;;9.51;100.00
57644;BME280;43474;46.510;6.686;2023-02-25T08:46:35;95378.94;;;9.40;100.00
57644;BME280;43474;46.510;6.686;2023-02-25T08:49:01;95362.81;;;9.10;100.00
57644;BME280;43474;46.510;6.686;2023-02-25T08:51:28;95380.19;;;8.95;100.00
57644;BME280;43474;46.510;6.686;2023-02-25T08:54:03;95387.00;;;8.91;100.00
57644;BME280;43474;46.510;6.686;2023-02-25T08:56:29;95371.97;;;9.71;100.00
57644;BME280;43474;46.510;6.686;2023-02-25T08:58:55;95365.75;;;10.96;100.00
57644;BME280;43474;46.510;6.686;2023-02-25T09:01:20;95360.59;;;11.97;98.89
57644;BME280;43474;46.510;6.686;2023-02-25T09:03:48;95347.94;;;12.38;94.39
57644;BME280;43474;46.510;6.686;2023-02-25T09:06:22;95358.09;;;12.75;93.47
57644;BME280;43474;46.510;6.686;2023-02-25T09:08:48;95356.50;;;13.42;95.32
57644;BME280;43474;46.510;6.686;2023-02-25T09:11:14;95350.00;;;13.59;90.47
57644;BME280;43474;46.510;6.686;2023-02-25T09:13:40;95341.63;;;13.70;84.68
57644;BME280;43474;46.510;6.686;2023-02-25T09:16:06;95335.44;;;13.75;81.47
57644;BME280;43474;46.510;6.686;2023-02-25T09:18:32;95351.47;;;13.70;82.21
57644;BME280;43474;46.510;6.686;2023-02-25T09:20:59;95354.22;;;13.89;87.59
57644;BME280;43474;46.510;6.686;2023-02-25T09:23:25;95343.31;;;14.09;80.00
57644;BME280;43474;46.510;6.686;2023-02-25T09:25:50;95347.19;;;13.98;80.04
57644;BME280;43474;46.510;6.686;2023-02-25T09:28:16;95345.16;;;14.33;81.13
57644;BME280;43474;46.510;6.686;2023-02-25T09:30:45;95339.84;;;14.33;76.92
57644;BME280;43474;46.510;6.686;2023-02-25T09:33:12;95347.84;;;14.09;74.46
57644;BME280;43474;46.510;6.686;2023-02-25T09:35:38;95346.03;;;14.04;77.29
57644;BME280;43474;46.510;6.686;2023-02-25T09:38:05;95346.22;;;14.13;77.25
57644;BME280;43474;46.510;6.686;2023-02-25T09:40:31;95353.84;;;14.19;81.39
57644;BME280;43474;46.510;6.686;2023-02-25T09:45:33;95338.94;;;14.80;74.54
57644;BME280;43474;46.510;6.686;2023-02-25T09:48:12;95350.38;;;14.99;75.58
57644;BME280;43474;46.510;6.686;2023-02-25T09:50:42;95337.88;;;15.14;71.33
57644;BME280;43474;46.510;6.686;2023-02-25T09:55:54;95334.22;;;16.16;68.23
57644;BME280;43474;46.510;6.686;2023-02-25T10:03:58;95330.72;;;16.66;69.10
57644;BME280;43474;46.510;6.686;2023-02-25T10:09:06;95333.91;;;16.18;59.57
57644;BME280;43474;46.510;6.686;2023-02-25T10:12:26;95322.91;;;16.69;67.36
57644;BME280;43474;46.510;6.686;2023-02-25T10:17:11;95330.44;;;17.03;68.04
57644;BME280;43474;46.510;6.686;2023-02-25T10:25:30;95331.03;;;17.00;60.31
57644;BME280;43474;46.510;6.686;2023-02-25T10:27:59;95330.03;;;16.88;60.67
57644;BME280;43474;46.510;6.686;2023-02-25T10:32:55;95323.81;;;16.78;60.94
57644;BME280;43474;46.510;6.686;2023-02-25T10:35:26;95329.41;;;16.41;59.46
57644;BME280;43474;46.510;6.686;2023-02-25T10:37:53;95322.13;;;16.19;60.83
57644;BME280;43474;46.510;6.686;2023-02-25T10:40:24;95328.25;;;16.33;62.60
57644;BME280;43474;46.510;6.686;2023-02-25T10:42:53;95325.13;;;16.53;60.89
57644;BME280;43474;46.510;6.686;2023-02-25T10:45:23;95327.28;;;16.65;56.37
57644;BME280;43474;46.510;6.686;2023-02-25T10:48:39;95327.78;;;16.03;57.04
57644;BME280;43474;46.510;6.686;2023-02-25T10:50:39;95312.72;;;15.94;60.02
57644;BME280;43474;46.510;6.686;2023-02-25T10:53:14;95329.72;;;16.25;62.84
57644;BME280;43474;46.510;6.686;2023-02-25T10:55:48;95315.19;;;16.32;62.73
57644;BME280;43474;46.510;6.686;2023-02-25T10:58:42;95324.78;;;17.05;55.92
57644;BME280;43474;46.510;6.686;2023-02-25T11:03:58;95328.34;;;16.00;59.99
57644;BME280;43474;46.510;6.686;2023-02-25T11:06:28;95311.41;;;16.69;56.17
57644;BME280;43474;46.510;6.686;2023-02-25T11:08:56;95321.63;;;16.67;56.52
57644;BME280;43474;46.510;6.686;2023-02-25T11:11:25;95327.31;;;15.55;61.25
57644;BME280;43474;46.510;6.686;2023-02-25T11:14:04;95317.59;;;16.55;60.94
57644;BME280;43474;46.510;6.686;2023-02-25T11:16:34;95324.63;;;17.01;54.26
57644;BME280;43474;46.510;6.686;2023-02-25T11:19:08;95310.84;;;16.58;55.50
57644;BME280;43474;46.510;6.686;2023-02-25T11:21:37;95302.88;;;16.80;54.12
57644;BME280;43474;46.510;6.686;2023-02-25T11:24:11;95314.31;;;16.95;54.42
57644;BME280;43474;46.510;6.686;2023-02-25T11:26:42;95305.25;;;16.82;55.44
57644;BME280;43474;46.510;6.686;2023-02-25T11:29:18;95293.34;;;16.88;54.20
57644;BME280;43474;46.510;6.686;2023-02-25T11:31:51;95294.19;;;16.97;54.97
57644;BME280;43474;46.510;6.686;2023-02-25T11:34:23;95294.09;;;17.34;56.40
57644;BME280;43474;46.510;6.686;2023-02-25T11:36:51;95274.97;;;17.18;55.63
57644;BME280;43474;46.510;6.686;2023-02-25T11:39:25;95274.06;;;17.00;56.62
57644;BME280;43474;46.510;6.686;2023-02-25T11:41:54;95283.72;;;17.10;55.99
57644;BME280;43474;46.510;6.686;2023-02-25T11:44:22;95277.31;;;17.42;56.92
57644;BME280;43474;46.510;6.686;2023-02-25T11:47:31;95280.19;;;17.00;52.71
57644;BME280;43474;46.510;6.686;2023-02-25T12:05:59;95251.91;;;13.18;64.37
57644;BME280;43474;46.510;6.686;2023-02-25T12:08:33;95238.38;;;12.85;64.77
57644;BME280;43474;46.510;6.686;2023-02-25T12:20:02;95235.94;;;11.66;70.36
57644;BME280;43474;46.510;6.686;2023-02-25T12:23:00;95219.06;;;12.01;67.01
57644;BME280;43474;46.510;6.686;2023-02-25T12:25:47;95203.03;;;12.16;66.69
57644;BME280;43474;46.510;6.686;2023-02-25T12:31:44;95207.00;;;14.59;64.32
57644;BME280;43474;46.510;6.686;2023-02-25T12:34:28;95199.94;;;15.28;61.15
57644;BME280;43474;46.510;6.686;2023-02-25T12:40:12;95196.56;;;14.43;60.16
57644;BME280;43474;46.510;6.686;2023-02-25T12:42:48;95191.69;;;13.94;59.46
57644;BME280;43474;46.510;6.686;2023-02-25T12:45:32;95178.47;;;14.40;59.10
57644;BME280;43474;46.510;6.686;2023-02-25T12:54:33;95171.00;;;14.42;62.00
57644;BME280;43474;46.510;6.686;2023-02-25T13:00:41;95161.16;;;14.57;60.71
57644;BME280;43474;46.510;6.686;2023-02-25T13:03:29;95159.50;;;14.61;62.01
57644;BME280;43474;46.510;6.686;2023-02-25T13:14:24;95142.94;;;14.64;65.08
57644;BME280;43474;46.510;6.686;2023-02-25T13:17:07;95142.50;;;14.57;63.43
57644;BME280;43474;46.510;6.686;2023-02-25T13:22:52;95139.03;;;14.89;63.20
57644;BME280;43474;46.510;6.686;2023-02-25T13:25:52;95144.19;;;15.13;61.64
57644;BME280;43474;46.510;6.686;2023-02-25T13:28:59;95134.38;;;14.94;59.81
57644;BME280;43474;46.510;6.686;2023-02-25T13:32:09;95132.41;;;15.14;60.58
57644;BME280;43474;46.510;6.686;2023-02-25T13:35:11;95117.97;;;15.15;56.78
57644;BME280;43474;46.510;6.686;2023-02-25T13:40:46;95133.88;;;15.47;58.10
57644;BME280;43474;46.510;6.686;2023-02-25T13:43:32;95122.78;;;15.40;58.43
57644;BME280;43474;46.510;6.686;2023-02-25T13:52:24;95135.28;;;13.30;64.89
57644;BME280;43474;46.510;6.686;2023-02-25T13:57:53;95135.94;;;12.93;68.36
57644;BME280;43474;46.510;6.686;2023-02-25T14:00:33;95133.00;;;12.94;62.22
57644;BME280;43474;46.510;6.686;2023-02-25T14:08:59;95120.25;;;12.91;63.58
57644;BME280;43474;46.510;6.686;2023-02-25T14:17:18;95119.56;;;11.94;65.33
57644;BME280;43474;46.510;6.686;2023-02-25T14:25:37;95132.97;;;11.03;69.30
57644;BME280;43474;46.510;6.686;2023-02-25T14:30:48;95150.06;;;10.56;71.89
57644;BME280;43474;46.510;6.686;2023-02-25T14:36:10;95148.22;;;10.01;73.33
57644;BME280;43474;46.510;6.686;2023-02-25T14:39:18;95150.84;;;9.86;75.98
57644;BME280;43474;46.510;6.686;2023-02-25T14:42:13;95138.91;;;9.73;76.49
57644;BME280;43474;46.510;6.686;2023-02-25T14:50:40;95168.59;;;9.12;77.52
57644;BME280;43474;46.510;6.686;2023-02-25T14:53:38;95159.63;;;9.13;78.52
57644;BME280;43474;46.510;6.686;2023-02-25T14:56:29;95160.94;;;9.11;76.19
57644;BME280;43474;46.510;6.686;2023-02-25T15:04:46;95176.28;;;9.19;78.97
57644;BME280;43474;46.510;6.686;2023-02-25T15:07:45;95173.53;;;8.93;82.40
57644;BME280;43474;46.510;6.686;2023-02-25T15:22:15;95192.00;;;7.87;87.70
57644;BME280;43474;46.510;6.686;2023-02-25T15:24:42;95206.47;;;7.84;86.82
57644;BME280;43474;46.510;6.686;2023-02-25T15:45:47;95220.81;;;7.22;92.58
57644;BME280;43474;46.510;6.686;2023-02-25T15:53:54;95217.28;;;6.95;95.79
57644;BME280;43474;46.510;6.686;2023-02-25T16:00:57;95211.25;;;6.78;97.15
57644;BME280;43474;46.510;6.686;2023-02-25T16:06:12;95212.78;;;6.73;97.66
57644;BME280;43474;46.510;6.686;2023-02-25T16:08:49;95200.41;;;6.74;99.81
57644;BME280;43474;46.510;6.686;2023-02-25T16:11:36;95214.34;;;6.74;98.33
57644;BME280;43474;46.510;6.686;2023-02-25T16:14:21;95216.84;;;6.64;95.56
57644;BME280;43474;46.510;6.686;2023-02-25T16:16:52;95205.69;;;6.57;96.68
57644;BME280;43474;46.510;6.686;2023-02-25T16:19:20;95214.13;;;6.59;97.73
57644;BME280;43474;46.510;6.686;2023-02-25T16:21:51;95215.03;;;6.48;99.27
57644;BME280;43474;46.510;6.686;2023-02-25T16:24:18;95211.28;;;6.44;100.00
57644;BME280;43474;46.510;6.686;2023-02-25T16:27:00;95214.88;;;6.38;99.36
57644;BME280;43474;46.510;6.686;2023-02-25T16:30:00;95219.41;;;6.26;100.00
57644;BME280;43474;46.510;6.686;2023-02-25T16:35:08;95228.41;;;6.13;100.00